createdAt,value
2022-10-01T00:02:01.949Z,12.50
2022-10-01T00:04:28.794Z,12.60
2022-10-01T00:06:59.146Z,12.50
2022-10-01T00:09:26.530Z,12.50
2022-10-01T00:11:58.850Z,12.50
2022-10-01T00:14:27.567Z,12.50
2022-10-01T00:16:54.955Z,12.50
2022-10-01T00:19:22.884Z,12.40
2022-10-01T00:21:49.758Z,12.20
2022-10-01T00:24:16.538Z,12.40
2022-10-01T00:26:45.606Z,12.30
2022-10-01T00:29:14.678Z,12.30
2022-10-01T00:31:42.072Z,12.30
2022-10-01T00:34:11.543Z,12.30
2022-10-01T00:36:38.524Z,12.30
2022-10-01T00:39:05.391Z,12.20
2022-10-01T00:41:34.772Z,12.30
2022-10-01T00:44:23.605Z,12.30
2022-10-01T00:46:51.346Z,12.20
2022-10-01T00:49:21.325Z,12.30
2022-10-01T00:51:52.000Z,12.20
2022-10-01T00:54:24.653Z,12.20
2022-10-01T00:56:53.504Z,12.20
2022-10-01T00:59:20.723Z,12.20
2022-10-01T01:01:48.074Z,12.10
2022-10-01T01:04:18.437Z,12.20
2022-10-01T01:06:55.871Z,12.10
2022-10-01T01:09:30.542Z,12.30
2022-10-01T01:12:19.327Z,12.20
2022-10-01T01:14:46.136Z,12.20
2022-10-01T01:17:19.388Z,12.20
2022-10-01T01:19:59.980Z,12.20
2022-10-01T01:22:28.942Z,12.30
2022-10-01T01:24:57.950Z,12.40
2022-10-01T01:27:25.345Z,12.40
2022-10-01T01:30:08.651Z,12.40
2022-10-01T01:32:42.891Z,12.30
2022-10-01T01:35:11.387Z,12.30
2022-10-01T01:37:47.697Z,12.20
2022-10-01T01:40:15.316Z,12.50
2022-10-01T01:42:43.228Z,12.30
2022-10-01T01:45:13.785Z,12.30
2022-10-01T01:47:42.232Z,12.20
2022-10-01T01:50:10.881Z,12.20
2022-10-01T01:52:38.725Z,12.40
2022-10-01T01:55:07.505Z,12.40
2022-10-01T01:57:38.465Z,12.40
2022-10-01T02:00:05.680Z,12.40
2022-10-01T02:02:33.559Z,12.40
2022-10-01T02:05:05.454Z,12.30
2022-10-01T02:07:55.865Z,12.30
2022-10-01T02:10:37.125Z,12.50
2022-10-01T02:13:33.260Z,12.40
2022-10-01T02:16:18.903Z,12.40
2022-10-01T02:19:14.624Z,12.30
2022-10-01T02:22:00.670Z,12.40
2022-10-01T02:24:48.815Z,12.40
2022-10-01T02:27:29.387Z,12.50
2022-10-01T02:29:58.716Z,12.40
2022-10-01T02:32:26.592Z,12.40
2022-10-01T02:34:54.038Z,12.40
2022-10-01T02:37:24.813Z,12.50
2022-10-01T02:39:52.790Z,12.40
2022-10-01T02:42:20.290Z,12.60
2022-10-01T02:44:48.175Z,12.40
2022-10-01T02:47:27.150Z,12.50
2022-10-01T02:49:56.941Z,12.50
2022-10-01T02:52:38.475Z,12.50
2022-10-01T02:55:09.305Z,12.90
2022-10-01T02:57:36.920Z,12.60
2022-10-01T03:00:13.589Z,12.70
2022-10-01T03:02:40.481Z,12.70
2022-10-01T03:05:08.073Z,12.80
2022-10-01T03:07:35.811Z,12.70
2022-10-01T03:10:04.119Z,12.70
2022-10-01T03:12:30.881Z,12.90
2022-10-01T03:14:57.739Z,12.90
2022-10-01T03:17:24.772Z,12.80
2022-10-01T03:19:51.634Z,12.90
2022-10-01T03:22:24.017Z,12.90
2022-10-01T03:24:52.096Z,13.00
2022-10-01T03:27:19.682Z,13.10
2022-10-01T03:29:46.616Z,13.00
2022-10-01T03:32:14.076Z,13.10
2022-10-01T03:34:41.212Z,13.00
2022-10-01T03:37:08.329Z,13.30
2022-10-01T03:39:36.293Z,13.10
2022-10-01T03:42:05.779Z,13.20
2022-10-01T03:44:34.111Z,13.20
2022-10-01T03:47:00.948Z,13.30
2022-10-01T03:49:28.162Z,13.40
2022-10-01T03:51:56.611Z,13.30
2022-10-01T03:54:23.388Z,13.20
2022-10-01T03:56:50.412Z,13.30
2022-10-01T03:59:17.377Z,13.40
2022-10-01T04:01:44.300Z,13.40
2022-10-01T04:04:11.149Z,13.40
2022-10-01T04:06:38.090Z,13.40
2022-10-01T04:09:05.047Z,13.40
2022-10-01T04:11:32.343Z,13.40
2022-10-01T04:13:59.587Z,13.40
2022-10-01T04:16:26.588Z,13.40
2022-10-01T04:18:53.695Z,13.40
2022-10-01T04:21:20.933Z,13.50
2022-10-01T04:23:47.775Z,13.50
2022-10-01T04:26:14.545Z,13.60
2022-10-01T04:28:41.466Z,13.60
2022-10-01T04:31:26.648Z,13.70
2022-10-01T04:33:54.978Z,13.70
2022-10-01T04:36:22.581Z,13.70
2022-10-01T04:38:57.998Z,13.70
2022-10-01T04:41:30.828Z,13.70
2022-10-01T04:43:59.336Z,13.80
2022-10-01T04:46:26.375Z,13.80
2022-10-01T04:48:53.168Z,13.80
2022-10-01T04:51:20.109Z,13.90
2022-10-01T04:53:47.105Z,13.70
2022-10-01T04:56:13.836Z,13.80
2022-10-01T04:58:41.385Z,13.90
2022-10-01T05:01:11.575Z,13.90
2022-10-01T05:03:38.755Z,13.80
2022-10-01T05:06:05.877Z,13.90
2022-10-01T05:08:35.315Z,14.00
2022-10-01T05:11:04.842Z,14.00
2022-10-01T05:13:32.044Z,14.00
2022-10-01T05:15:59.238Z,14.10
2022-10-01T05:18:28.575Z,14.00
2022-10-01T05:20:55.342Z,14.00
2022-10-01T05:23:22.175Z,14.10
2022-10-01T05:25:49.101Z,14.00
2022-10-01T05:28:21.273Z,14.10
2022-10-01T05:30:49.396Z,14.00
2022-10-01T05:33:16.159Z,14.00
2022-10-01T05:35:43.158Z,14.10
2022-10-01T05:38:12.452Z,14.00
2022-10-01T05:40:39.220Z,14.20
2022-10-01T05:43:09.054Z,14.00
2022-10-01T05:45:35.980Z,14.00
2022-10-01T05:48:05.394Z,14.10
2022-10-01T05:50:34.606Z,14.10
2022-10-01T05:53:02.496Z,14.10
2022-10-01T05:55:33.558Z,14.10
2022-10-01T05:58:03.182Z,14.00
2022-10-01T06:00:30.814Z,14.00
2022-10-01T06:03:00.954Z,14.20
2022-10-01T06:05:29.242Z,13.90
2022-10-01T06:08:01.582Z,14.00
2022-10-01T06:10:30.414Z,14.00
2022-10-01T06:13:08.244Z,13.90
2022-10-01T06:15:50.247Z,13.90
2022-10-01T06:18:17.162Z,14.00
2022-10-01T06:20:44.054Z,14.10
2022-10-01T06:23:13.630Z,14.20
2022-10-01T06:25:41.799Z,14.10
2022-10-01T06:28:10.698Z,14.10
2022-10-01T06:30:39.337Z,14.30
2022-10-01T06:33:08.700Z,14.10
2022-10-01T06:35:39.490Z,14.10
2022-10-01T06:38:06.665Z,14.30
2022-10-01T06:40:33.518Z,14.20
2022-10-01T06:43:00.301Z,14.40
2022-10-01T06:45:28.707Z,14.40
2022-10-01T06:47:56.694Z,14.30
2022-10-01T06:50:24.358Z,14.40
2022-10-01T06:52:51.775Z,14.40
2022-10-01T06:55:20.678Z,14.40
2022-10-01T06:57:47.686Z,14.60
2022-10-01T07:00:14.844Z,14.50
2022-10-01T07:02:41.789Z,14.60
2022-10-01T07:05:09.321Z,14.80
2022-10-01T07:07:37.564Z,14.80
2022-10-01T07:10:07.313Z,14.70
2022-10-01T07:12:35.076Z,14.60
2022-10-01T07:15:02.054Z,14.70
2022-10-01T07:17:28.870Z,14.70
2022-10-01T07:19:55.601Z,14.70
2022-10-01T07:22:24.205Z,14.60
2022-10-01T07:24:52.131Z,14.70
2022-10-01T07:27:19.801Z,14.60
2022-10-01T07:29:46.898Z,14.70
2022-10-01T07:32:13.854Z,14.60
2022-10-01T07:34:40.707Z,14.60
2022-10-01T07:37:08.329Z,14.80
2022-10-01T07:39:35.880Z,14.90
2022-10-01T07:42:02.960Z,15.00
2022-10-01T07:44:29.758Z,15.10
2022-10-01T07:46:56.931Z,15.10
2022-10-01T07:49:27.012Z,15.20
2022-10-01T07:51:58.954Z,15.40
2022-10-01T07:54:26.248Z,15.20
2022-10-01T07:56:55.852Z,15.40
2022-10-01T07:59:23.244Z,15.50
2022-10-01T08:01:51.822Z,15.50
2022-10-01T08:04:39.066Z,15.70
2022-10-01T08:07:07.502Z,15.80
2022-10-01T08:09:34.916Z,15.80
2022-10-01T08:12:02.901Z,15.90
2022-10-01T08:14:30.635Z,15.70
2022-10-01T08:16:57.609Z,15.80
2022-10-01T08:19:25.526Z,15.80
2022-10-01T08:21:52.847Z,15.70
2022-10-01T08:24:20.204Z,15.90
2022-10-01T08:26:55.979Z,15.90
2022-10-01T08:29:22.806Z,15.90
2022-10-01T08:31:50.243Z,15.90
2022-10-01T08:34:17.135Z,16.00
2022-10-01T08:36:44.064Z,16.10
2022-10-01T08:39:12.680Z,16.10
2022-10-01T08:41:54.037Z,16.40
2022-10-01T08:44:29.685Z,16.40
2022-10-01T08:47:00.835Z,16.70
2022-10-01T08:49:33.216Z,16.40
2022-10-01T08:52:19.114Z,16.70
2022-10-01T08:54:51.000Z,16.80
2022-10-01T08:57:21.612Z,16.90
2022-10-01T08:59:54.495Z,17.00
2022-10-01T09:02:22.956Z,16.90
2022-10-01T09:05:32.339Z,17.10
2022-10-01T09:08:24.235Z,17.30
2022-10-01T09:11:02.157Z,17.30
2022-10-01T09:13:50.409Z,17.30
2022-10-01T09:16:23.810Z,17.30
2022-10-01T09:19:27.873Z,17.40
2022-10-01T09:21:59.730Z,17.20
2022-10-01T09:24:45.442Z,17.50
2022-10-01T09:27:17.833Z,17.50
2022-10-01T09:30:11.508Z,17.60
2022-10-01T09:33:04.164Z,17.60
2022-10-01T09:35:48.497Z,17.80
2022-10-01T09:38:34.540Z,17.90
2022-10-01T09:41:02.106Z,18.10
2022-10-01T09:43:30.976Z,17.80
2022-10-01T09:45:58.128Z,18.20
2022-10-01T09:48:38.707Z,18.20
2022-10-01T09:51:15.028Z,17.90
2022-10-01T09:53:47.823Z,18.00
2022-10-01T09:56:23.785Z,18.10
2022-10-01T09:58:54.298Z,17.90
2022-10-01T10:01:27.077Z,17.80
2022-10-01T10:03:57.668Z,17.70
2022-10-01T10:06:28.231Z,17.70
2022-10-01T10:08:57.119Z,17.60
2022-10-01T10:11:29.320Z,17.60
2022-10-01T10:14:00.230Z,17.50
2022-10-01T10:16:36.091Z,17.50
2022-10-01T10:19:06.795Z,17.50
2022-10-01T10:21:37.868Z,17.40
2022-10-01T10:24:07.307Z,17.40
2022-10-01T10:26:39.218Z,17.50
2022-10-01T10:29:08.559Z,17.40
2022-10-01T10:31:45.385Z,17.30
2022-10-01T10:34:16.690Z,17.50
2022-10-01T10:36:44.729Z,17.60
2022-10-01T10:39:17.569Z,17.50
2022-10-01T10:41:47.113Z,17.80
2022-10-01T10:44:16.278Z,17.60
2022-10-01T10:46:46.325Z,17.50
2022-10-01T10:49:33.687Z,17.60
2022-10-01T10:52:01.625Z,17.70
2022-10-01T10:54:36.318Z,17.70
2022-10-01T10:57:18.415Z,18.10
